createdAt,value
2023-04-07T00:01:33.927Z,4.10
2023-04-07T00:05:26.711Z,3.20
2023-04-07T00:09:12.803Z,3.20
2023-04-07T00:12:59.083Z,2.60
2023-04-07T00:16:46.371Z,2.10
2023-04-07T00:20:33.866Z,2.20
2023-04-07T00:24:31.140Z,1.80
2023-04-07T00:28:26.514Z,1.90
2023-04-07T00:32:26.176Z,2.20
2023-04-07T00:36:30.195Z,1.80
2023-04-07T00:40:33.416Z,1.90
2023-04-07T00:44:33.265Z,1.80
2023-04-07T00:48:36.388Z,2.70
2023-04-07T00:52:36.407Z,2.70
2023-04-07T00:56:39.769Z,2.50
2023-04-07T01:00:40.628Z,3.10
2023-04-07T01:04:34.694Z,1.80
2023-04-07T01:12:04.177Z,2.90
2023-04-07T01:15:58.694Z,3.50
2023-04-07T01:19:53.622Z,2.60
2023-04-07T01:23:57.903Z,3.40
2023-04-07T01:27:56.606Z,3.10
2023-04-07T01:32:00.008Z,2.80
2023-04-07T01:35:58.633Z,3.60
2023-04-07T01:40:01.974Z,2.80
2023-04-07T01:44:01.451Z,4.30
2023-04-07T01:48:04.448Z,3.50
2023-04-07T01:52:04.495Z,3.90
2023-04-07T01:56:07.000Z,5.30
2023-04-07T01:59:59.650Z,3.40
2023-04-07T02:03:51.151Z,4.40
2023-04-07T02:07:37.486Z,2.70
2023-04-07T02:11:32.414Z,1.90
2023-04-07T02:15:22.243Z,3.30
2023-04-07T02:19:09.564Z,2.90
2023-04-07T02:22:56.049Z,4.20
2023-04-07T02:26:43.007Z,3.60
2023-04-07T02:30:29.275Z,3.40
2023-04-07T02:34:16.435Z,3.40
2023-04-07T02:38:03.120Z,5.20
2023-04-07T02:41:49.863Z,6.40
2023-04-07T02:45:36.224Z,3.80
2023-04-07T02:49:24.383Z,3.20
2023-04-07T02:53:10.408Z,3.70
2023-04-07T02:56:56.831Z,3.30
2023-04-07T03:00:44.676Z,3.40
2023-04-07T03:04:34.805Z,9.90
2023-04-07T03:08:21.169Z,9.70
2023-04-07T03:12:09.920Z,8.50
2023-04-07T03:15:56.443Z,6.40
2023-04-07T03:19:43.310Z,6.80
2023-04-07T03:23:29.786Z,5.60
2023-04-07T03:27:18.100Z,8.20
2023-04-07T03:31:08.018Z,6.90
2023-04-07T03:34:54.994Z,6.20
2023-04-07T03:38:41.498Z,6.40
2023-04-07T03:42:28.957Z,15.80
2023-04-07T03:46:20.779Z,6.00
2023-04-07T03:50:07.827Z,8.10
2023-04-07T03:54:00.020Z,6.50
2023-04-07T03:58:04.918Z,9.30
2023-04-07T04:02:08.971Z,6.20
2023-04-07T04:06:12.723Z,6.40
2023-04-07T04:10:12.642Z,4.90
2023-04-07T04:14:21.541Z,8.30
2023-04-07T04:18:26.719Z,6.00
2023-04-07T04:22:30.304Z,13.30
2023-04-07T04:26:30.903Z,7.20
2023-04-07T04:30:28.881Z,4.50
2023-04-07T04:34:18.959Z,6.80
2023-04-07T04:38:19.927Z,6.40
2023-04-07T04:42:35.357Z,6.50
2023-04-07T04:46:35.024Z,9.40
2023-04-07T04:50:35.135Z,8.80
2023-04-07T04:54:40.916Z,9.60
2023-04-07T04:58:45.140Z,8.00
2023-04-07T05:02:47.188Z,12.30
2023-04-07T05:06:50.223Z,6.60
2023-04-07T05:10:51.872Z,8.50
2023-04-07T05:14:56.258Z,5.80
2023-04-07T05:19:02.975Z,7.80
2023-04-07T05:23:06.789Z,3.40
2023-04-07T05:27:07.734Z,5.30
2023-04-07T05:31:16.590Z,5.00
2023-04-07T05:35:17.042Z,4.40
2023-04-07T05:39:25.957Z,3.60
2023-04-07T05:43:27.968Z,4.30
2023-04-07T05:47:31.042Z,2.60
2023-04-07T05:51:30.891Z,2.60
2023-04-07T05:55:34.352Z,3.10
2023-04-07T05:59:35.037Z,3.50
2023-04-07T06:03:43.431Z,2.20
2023-04-07T06:07:51.954Z,2.90
2023-04-07T06:11:56.201Z,2.00
2023-04-07T06:15:54.980Z,2.90
2023-04-07T06:19:59.320Z,2.80
2023-04-07T06:23:59.099Z,3.80
2023-04-07T06:28:03.755Z,1.90
2023-04-07T06:32:03.168Z,1.30
2023-04-07T06:36:05.847Z,3.30
2023-04-07T06:40:11.060Z,2.30
2023-04-07T06:44:13.877Z,2.60
2023-04-07T06:48:13.091Z,2.40
2023-04-07T06:52:16.036Z,3.70
2023-04-07T06:56:17.998Z,2.90
2023-04-07T07:00:20.449Z,3.10
2023-04-07T07:04:21.241Z,4.40
2023-04-07T07:08:23.860Z,5.00
2023-04-07T07:12:23.142Z,5.20
2023-04-07T07:16:25.922Z,4.80
2023-04-07T07:20:28.291Z,4.20
2023-04-07T07:24:30.981Z,3.20
2023-04-07T07:28:28.985Z,5.30
2023-04-07T07:32:32.574Z,4.00
2023-04-07T07:36:30.993Z,4.80
2023-04-07T07:40:34.004Z,3.70
2023-04-07T07:48:15.966Z,4.30
2023-04-07T07:52:19.180Z,4.30
2023-04-07T07:56:18.922Z,3.60
2023-04-07T08:00:21.723Z,3.70
2023-04-07T08:04:23.156Z,4.70
2023-04-07T08:08:25.633Z,4.20
2023-04-07T08:12:25.103Z,3.80
2023-04-07T08:16:27.637Z,4.60
2023-04-07T08:20:25.967Z,2.90
2023-04-07T08:24:28.991Z,4.00
2023-04-07T08:28:29.180Z,5.10
2023-04-07T08:32:31.703Z,5.60
2023-04-07T08:36:30.278Z,4.60
2023-04-07T08:40:32.690Z,4.80
2023-04-07T08:44:33.102Z,5.00
2023-04-07T08:48:35.187Z,4.40
2023-04-07T08:52:35.064Z,4.40
2023-04-07T08:56:37.927Z,5.10
2023-04-07T09:00:37.160Z,3.00
2023-04-07T09:04:42.866Z,4.00
2023-04-07T09:08:41.154Z,3.50
2023-04-07T09:12:47.124Z,2.80
2023-04-07T09:16:45.192Z,3.60
2023-04-07T09:20:49.390Z,3.30
2023-04-07T09:24:48.354Z,4.40
2023-04-07T09:28:51.345Z,3.10
2023-04-07T09:32:50.209Z,1.70
2023-04-07T09:36:53.031Z,2.20
2023-04-07T09:40:51.283Z,1.60
2023-04-07T09:44:53.726Z,2.60
2023-04-07T09:48:53.373Z,1.80
2023-04-07T09:52:56.354Z,2.40
2023-04-07T09:56:56.161Z,1.50
2023-04-07T10:04:48.457Z,2.40
2023-04-07T10:08:48.543Z,2.30
2023-04-07T10:12:53.226Z,1.70
2023-04-07T10:16:53.418Z,2.20
2023-04-07T10:20:56.204Z,1.70
2023-04-07T10:24:55.430Z,2.90
2023-04-07T10:28:58.008Z,1.50
2023-04-07T10:32:56.491Z,2.90
2023-04-07T10:36:59.850Z,2.60
2023-04-07T10:40:59.458Z,1.90
2023-04-07T10:45:03.425Z,2.00
2023-04-07T10:49:03.582Z,2.20
2023-04-07T10:53:06.280Z,2.60
2023-04-07T10:57:06.446Z,2.50
2023-04-07T11:01:09.232Z,2.90
2023-04-07T11:05:09.406Z,3.20
2023-04-07T11:09:12.455Z,2.70
2023-04-07T11:13:16.523Z,2.60
2023-04-07T11:17:19.288Z,2.80
2023-04-07T11:21:19.605Z,1.80
2023-04-07T11:25:24.375Z,2.40
2023-04-07T11:29:29.561Z,2.30
2023-04-07T11:33:29.385Z,1.30
2023-04-07T11:37:32.466Z,2.10
2023-04-07T11:41:31.496Z,1.90
2023-04-07T11:45:34.515Z,2.70
2023-04-07T11:49:33.302Z,2.30
2023-04-07T11:53:35.961Z,2.20
2023-04-07T11:57:35.708Z,2.30
2023-04-07T12:01:38.561Z,2.40
2023-04-07T12:05:38.687Z,2.40
2023-04-07T12:09:42.093Z,2.40
2023-04-07T12:13:42.694Z,1.70
2023-04-07T12:17:45.956Z,1.60
2023-04-07T12:21:46.789Z,2.20
2023-04-07T12:25:49.196Z,2.10
2023-04-07T12:29:50.611Z,1.70
2023-04-07T12:33:54.484Z,1.90
2023-04-07T12:37:57.687Z,1.90
2023-04-07T12:41:57.162Z,1.40
2023-04-07T12:45:59.769Z,2.00
2023-04-07T12:50:01.072Z,1.90
2023-04-07T12:53:58.507Z,1.60
2023-04-07T12:57:58.693Z,2.00
2023-04-07T13:01:56.943Z,2.60
2023-04-07T13:05:55.368Z,3.00
2023-04-07T13:09:57.878Z,2.10
2023-04-07T13:14:01.251Z,4.00
2023-04-07T13:17:58.903Z,1.80
2023-04-07T13:21:59.878Z,2.00
2023-04-07T13:25:56.920Z,1.50
2023-04-07T13:29:57.676Z,1.50
2023-04-07T13:33:54.612Z,2.20
2023-04-07T13:37:55.374Z,1.80
2023-04-07T13:41:42.039Z,2.00
2023-04-07T13:45:30.040Z,1.80
2023-04-07T13:49:16.133Z,2.20
2023-04-07T13:53:02.164Z,1.50
2023-04-07T13:56:48.857Z,1.70
2023-04-07T14:00:40.919Z,1.50
2023-04-07T14:04:36.887Z,1.30
2023-04-07T14:08:38.716Z,3.20
2023-04-07T14:12:36.052Z,4.20
2023-04-07T14:16:40.183Z,7.40
2023-04-07T14:20:36.628Z,2.50
2023-04-07T14:24:38.329Z,2.90
2023-04-07T14:28:48.015Z,1.60
2023-04-07T14:32:44.812Z,1.90
2023-04-07T14:36:32.534Z,2.60
2023-04-07T14:40:21.212Z,3.60
2023-04-07T14:44:07.781Z,2.20
2023-04-07T14:47:54.484Z,3.00
2023-04-07T14:51:40.723Z,1.30
2023-04-07T14:55:33.372Z,1.30
2023-04-07T14:59:29.054Z,1.50
2023-04-07T15:03:26.359Z,2.50
2023-04-07T15:07:26.587Z,1.60
2023-04-07T15:11:24.248Z,2.10
2023-04-07T15:15:24.888Z,2.40
2023-04-07T15:19:26.118Z,3.30
2023-04-07T15:23:29.983Z,4.20
2023-04-07T15:27:27.122Z,4.90
2023-04-07T15:31:20.031Z,2.40
2023-04-07T15:35:06.519Z,2.20
2023-04-07T15:38:53.251Z,1.80
2023-04-07T15:42:46.441Z,3.40
2023-04-07T15:46:38.958Z,6.30
2023-04-07T15:50:31.682Z,12.60
2023-04-07T15:58:09.035Z,10.40
2023-04-07T16:02:06.289Z,5.70
2023-04-07T16:06:07.678Z,3.50
2023-04-07T16:10:05.127Z,5.00
2023-04-07T16:14:08.959Z,18.60
2023-04-07T16:18:07.902Z,25.90
2023-04-07T16:22:01.036Z,30.60
2023-04-07T16:25:53.188Z,15.70
2023-04-07T16:29:46.362Z,27.90
2023-04-07T16:33:49.093Z,16.00
2023-04-07T16:37:54.921Z,6.90
2023-04-07T16:41:58.081Z,13.90
2023-04-07T16:46:00.189Z,27.90
2023-04-07T16:50:03.500Z,23.20
2023-04-07T16:54:02.049Z,50.70
2023-04-07T16:58:05.055Z,18.30
2023-04-07T17:02:05.014Z,4.30
2023-04-07T17:06:09.105Z,6.10
2023-04-07T17:10:09.919Z,4.60
2023-04-07T17:14:12.072Z,4.20
2023-04-07T17:18:11.074Z,5.10
2023-04-07T17:22:12.992Z,15.00
2023-04-07T17:26:07.194Z,19.30
2023-04-07T17:30:11.596Z,15.20
2023-04-07T17:34:10.904Z,12.00
2023-04-07T17:38:14.421Z,9.90
2023-04-07T17:42:13.973Z,10.60
2023-04-07T17:46:17.044Z,8.20
2023-04-07T17:50:15.938Z,12.30
2023-04-07T17:54:15.091Z,17.50
2023-04-07T17:58:09.796Z,17.80
2023-04-07T18:02:17.654Z,22.00
2023-04-07T18:06:21.069Z,17.80
2023-04-07T18:10:21.245Z,16.70
2023-04-07T18:14:32.987Z,21.30
2023-04-07T18:18:31.220Z,11.50
2023-04-07T18:22:34.061Z,22.20
2023-04-07T18:26:28.723Z,20.90
2023-04-07T18:30:27.402Z,24.50
2023-04-07T18:34:35.244Z,26.80
2023-04-07T18:38:40.550Z,29.40
2023-04-07T18:42:40.186Z,35.50
2023-04-07T18:46:43.768Z,35.20
2023-04-07T18:50:44.253Z,24.50
2023-04-07T18:54:42.429Z,22.40
2023-04-07T18:58:40.328Z,30.50
2023-04-07T19:02:44.851Z,27.00
2023-04-07T19:06:46.250Z,20.60
2023-04-07T19:10:55.064Z,23.70
2023-04-07T19:14:56.141Z,12.00
2023-04-07T19:18:59.766Z,10.90
2023-04-07T19:23:00.249Z,7.70
2023-04-07T19:27:05.163Z,11.90
2023-04-07T19:31:05.161Z,16.40
2023-04-07T19:35:08.249Z,13.70
2023-04-07T19:39:10.190Z,7.80
2023-04-07T19:43:14.217Z,11.10
2023-04-07T19:47:14.302Z,8.30
2023-04-07T19:51:18.317Z,8.20
2023-04-07T19:55:17.137Z,9.00
2023-04-07T19:59:16.438Z,9.70
2023-04-07T20:03:23.331Z,12.30
2023-04-07T20:07:26.331Z,25.00
2023-04-07T20:11:25.362Z,8.30
2023-04-07T20:15:29.399Z,6.20
2023-04-07T20:19:28.478Z,6.50
2023-04-07T20:23:26.455Z,22.00
2023-04-07T20:27:26.478Z,11.40
2023-04-07T20:31:26.674Z,8.20
2023-04-07T20:35:32.530Z,6.00
2023-04-07T20:39:34.225Z,6.30
2023-04-07T20:43:37.477Z,6.90
2023-04-07T20:47:37.251Z,9.30
2023-04-07T20:51:40.074Z,10.10
2023-04-07T20:55:39.421Z,8.40
2023-04-07T20:59:42.559Z,9.00
2023-04-07T21:03:42.499Z,9.10
2023-04-07T21:07:45.466Z,7.80
2023-04-07T21:11:47.332Z,9.90
2023-04-07T21:15:50.426Z,8.60
2023-04-07T21:19:51.355Z,8.50
2023-04-07T21:23:57.608Z,9.50
2023-04-07T21:27:57.551Z,8.40
2023-04-07T21:32:01.205Z,7.90
2023-04-07T21:36:01.549Z,12.50
2023-04-07T21:40:04.518Z,10.00
2023-04-07T21:47:48.554Z,8.10
2023-04-07T21:51:52.567Z,9.20
2023-04-07T21:55:52.572Z,10.50
2023-04-07T21:59:55.514Z,10.70
2023-04-07T22:04:07.767Z,10.30
2023-04-07T22:08:10.561Z,10.60
2023-04-07T22:12:09.535Z,11.40
2023-04-07T22:16:13.091Z,10.90
2023-04-07T22:20:20.675Z,10.40
2023-04-07T22:24:24.112Z,12.50
2023-04-07T22:28:23.620Z,11.00
2023-04-07T22:32:26.641Z,10.10
2023-04-07T22:36:25.585Z,12.10
2023-04-07T22:40:30.198Z,10.50
2023-04-07T22:44:29.651Z,10.90
2023-04-07T22:48:32.232Z,11.90
2023-04-07T22:52:30.958Z,8.50
2023-04-07T22:56:33.904Z,12.30
2023-04-07T23:00:33.838Z,12.20
2023-04-07T23:04:34.419Z,10.90
2023-04-07T23:08:35.366Z,10.20
2023-04-07T23:12:38.538Z,13.10
2023-04-07T23:16:36.693Z,12.80
2023-04-07T23:20:39.619Z,14.70
2023-04-07T23:24:46.826Z,11.30
2023-04-07T23:28:49.699Z,10.10
2023-04-07T23:32:44.761Z,9.60
2023-04-07T23:36:43.077Z,11.10
2023-04-07T23:40:47.815Z,14.90
2023-04-07T23:44:51.268Z,12.00
2023-04-07T23:48:50.954Z,12.90
2023-04-07T23:52:54.180Z,12.60
2023-04-07T23:56:53.596Z,11.80
